createdAt,value
2023-03-27T00:00:33.472Z,2.19
2023-03-27T00:03:01.393Z,2.06
2023-03-27T00:05:28.082Z,1.98
2023-03-27T00:07:54.564Z,1.97
2023-03-27T00:10:22.123Z,1.90
2023-03-27T00:12:51.091Z,1.89
2023-03-27T00:15:17.645Z,1.93
2023-03-27T00:17:46.040Z,1.91
2023-03-27T00:20:13.965Z,1.83
2023-03-27T00:22:40.373Z,1.83
2023-03-27T00:25:08.870Z,1.77
2023-03-27T00:27:35.397Z,1.74
2023-03-27T00:30:01.885Z,1.70
2023-03-27T00:32:28.313Z,1.72
2023-03-27T00:34:54.771Z,1.72
2023-03-27T00:37:21.171Z,1.71
2023-03-27T00:39:48.914Z,1.71
2023-03-27T00:42:16.611Z,1.67
2023-03-27T00:44:43.036Z,1.58
2023-03-27T00:47:09.975Z,1.52
2023-03-27T00:49:36.625Z,1.54
2023-03-27T00:52:03.466Z,1.48
2023-03-27T00:54:31.068Z,1.43
2023-03-27T00:56:59.749Z,1.51
2023-03-27T00:59:31.295Z,1.45
2023-03-27T01:01:58.632Z,1.54
2023-03-27T01:04:25.134Z,1.47
2023-03-27T01:06:52.512Z,1.45
2023-03-27T01:09:20.590Z,1.32
2023-03-27T01:12:11.120Z,1.32
2023-03-27T01:15:18.338Z,1.31
2023-03-27T01:17:59.462Z,1.28
2023-03-27T01:20:51.950Z,1.35
2023-03-27T01:24:00.020Z,1.31
2023-03-27T01:26:36.958Z,1.21
2023-03-27T01:29:26.256Z,1.18
2023-03-27T01:32:10.926Z,1.15
2023-03-27T01:34:49.315Z,1.15
2023-03-27T01:37:53.150Z,1.17
2023-03-27T01:40:21.232Z,1.19
2023-03-27T01:43:08.619Z,1.19
2023-03-27T01:45:53.236Z,1.15
2023-03-27T01:48:27.921Z,1.19
2023-03-27T01:50:57.156Z,1.13
2023-03-27T01:53:30.343Z,1.08
2023-03-27T01:56:05.947Z,1.04
2023-03-27T01:58:35.161Z,1.09
2023-03-27T02:01:01.744Z,1.13
2023-03-27T02:03:42.639Z,1.14
2023-03-27T02:06:12.024Z,1.08
2023-03-27T02:08:41.299Z,1.10
2023-03-27T02:11:07.861Z,1.04
2023-03-27T02:13:41.166Z,1.00
2023-03-27T02:16:09.071Z,0.95
2023-03-27T02:18:37.636Z,0.89
2023-03-27T02:21:06.787Z,0.90
2023-03-27T02:23:33.300Z,0.93
2023-03-27T02:25:59.770Z,0.95
2023-03-27T02:28:41.202Z,0.93
2023-03-27T02:31:31.746Z,0.86
2023-03-27T02:34:14.945Z,0.90
2023-03-27T02:36:47.319Z,0.94
2023-03-27T02:39:40.067Z,0.92
2023-03-27T02:42:18.378Z,0.86
2023-03-27T02:44:50.744Z,0.89
2023-03-27T02:47:23.159Z,0.86
2023-03-27T02:49:56.341Z,0.94
2023-03-27T02:52:35.374Z,1.00
2023-03-27T02:55:07.296Z,1.03
2023-03-27T02:57:36.083Z,1.02
2023-03-27T03:00:04.858Z,1.02
2023-03-27T03:02:32.247Z,1.02
2023-03-27T03:05:10.301Z,1.01
2023-03-27T03:07:37.209Z,0.98
2023-03-27T03:10:05.255Z,1.00
2023-03-27T03:12:31.696Z,1.01
2023-03-27T03:14:58.210Z,0.99
2023-03-27T03:17:24.734Z,0.94
2023-03-27T03:19:51.186Z,0.91
2023-03-27T03:22:17.590Z,0.89
2023-03-27T03:24:44.019Z,0.87
2023-03-27T03:27:10.553Z,0.88
2023-03-27T03:29:37.014Z,0.89
2023-03-27T03:32:04.439Z,0.88
2023-03-27T03:34:30.995Z,0.89
2023-03-27T03:36:57.418Z,0.92
2023-03-27T03:39:23.878Z,0.91
2023-03-27T03:41:50.312Z,0.92
2023-03-27T03:44:16.931Z,0.92
2023-03-27T03:46:43.391Z,0.91
2023-03-27T03:49:09.917Z,0.90
2023-03-27T03:51:36.404Z,0.92
2023-03-27T03:54:03.284Z,1.01
2023-03-27T03:56:29.700Z,1.09
2023-03-27T03:58:56.293Z,1.23
2023-03-27T04:01:23.022Z,1.26
2023-03-27T04:03:49.701Z,1.30
2023-03-27T04:06:16.737Z,1.30
2023-03-27T04:08:47.336Z,1.26
2023-03-27T04:11:13.791Z,1.25
2023-03-27T04:13:40.216Z,1.23
2023-03-27T04:16:06.819Z,1.21
2023-03-27T04:18:33.467Z,1.28
2023-03-27T04:20:59.917Z,1.25
2023-03-27T04:23:26.505Z,1.26
2023-03-27T04:25:52.954Z,1.24
2023-03-27T04:28:21.488Z,1.25
2023-03-27T04:30:47.901Z,1.24
2023-03-27T04:33:14.350Z,1.20
2023-03-27T04:35:40.786Z,1.17
2023-03-27T04:38:09.331Z,1.20
2023-03-27T04:40:35.722Z,1.21
2023-03-27T04:43:02.124Z,1.25
2023-03-27T04:45:28.544Z,1.20
2023-03-27T04:47:55.030Z,1.25
2023-03-27T04:50:21.509Z,1.24
2023-03-27T04:52:50.185Z,1.23
2023-03-27T04:55:16.934Z,1.19
2023-03-27T04:57:46.655Z,1.20
2023-03-27T05:00:13.588Z,1.20
2023-03-27T05:02:40.059Z,1.13
2023-03-27T05:05:06.779Z,1.09
2023-03-27T05:07:33.202Z,1.19
2023-03-27T05:09:59.599Z,1.14
2023-03-27T05:12:26.021Z,1.20
2023-03-27T05:14:55.628Z,1.25
2023-03-27T05:17:22.056Z,1.22
2023-03-27T05:19:48.509Z,1.18
2023-03-27T05:22:15.620Z,1.25
2023-03-27T05:24:42.105Z,1.31
2023-03-27T05:27:08.544Z,1.32
2023-03-27T05:29:46.938Z,1.36
2023-03-27T05:32:14.329Z,1.30
2023-03-27T05:34:42.163Z,1.32
2023-03-27T05:37:08.564Z,1.33
2023-03-27T05:39:35.060Z,1.37
2023-03-27T05:42:01.519Z,1.40
2023-03-27T05:44:27.942Z,1.37
2023-03-27T05:46:54.597Z,1.37
2023-03-27T05:49:21.038Z,1.41
2023-03-27T05:51:47.529Z,1.41
2023-03-27T05:54:14.024Z,1.44
2023-03-27T05:56:40.510Z,1.54
2023-03-27T05:59:06.977Z,1.58
2023-03-27T06:01:33.410Z,1.60
2023-03-27T06:04:00.049Z,1.64
2023-03-27T06:06:26.558Z,1.71
2023-03-27T06:08:53.023Z,1.75
2023-03-27T06:11:19.463Z,1.82
2023-03-27T06:13:45.884Z,1.87
2023-03-27T06:16:12.415Z,1.89
2023-03-27T06:18:39.034Z,1.94
2023-03-27T06:21:05.802Z,1.98
2023-03-27T06:23:32.234Z,2.02
2023-03-27T06:25:58.940Z,2.06
2023-03-27T06:28:25.537Z,2.09
2023-03-27T06:30:52.100Z,2.10
2023-03-27T06:33:18.941Z,2.17
2023-03-27T06:35:53.624Z,2.29
2023-03-27T06:38:21.024Z,2.39
2023-03-27T06:40:47.480Z,2.41
2023-03-27T06:43:13.990Z,2.44
2023-03-27T06:45:47.396Z,2.70
2023-03-27T06:48:19.307Z,2.91
2023-03-27T06:50:49.023Z,3.03
2023-03-27T06:53:25.796Z,3.12
2023-03-27T06:55:53.827Z,3.16
2023-03-27T06:58:20.723Z,3.20
2023-03-27T07:00:47.479Z,3.16
2023-03-27T07:03:15.153Z,3.15
2023-03-27T07:05:41.870Z,3.11
2023-03-27T07:08:22.500Z,3.09
2023-03-27T07:10:59.716Z,3.11
2023-03-27T07:13:36.960Z,3.04
2023-03-27T07:16:03.512Z,3.09
2023-03-27T07:18:30.003Z,3.18
2023-03-27T07:20:56.696Z,3.29
2023-03-27T07:23:23.368Z,3.35
2023-03-27T07:25:49.898Z,3.53
2023-03-27T07:28:16.331Z,3.69
2023-03-27T07:30:42.858Z,3.74
2023-03-27T07:33:09.583Z,3.82
2023-03-27T07:35:43.168Z,3.87
2023-03-27T07:38:10.617Z,3.78
2023-03-27T07:40:40.473Z,3.60
2023-03-27T07:43:07.464Z,3.63
2023-03-27T07:45:34.188Z,3.78
2023-03-27T07:48:11.938Z,3.73
2023-03-27T07:50:38.373Z,3.84
2023-03-27T07:53:07.093Z,3.89
2023-03-27T07:55:34.132Z,3.91
2023-03-27T07:58:02.984Z,3.91
2023-03-27T08:00:31.482Z,3.96
2023-03-27T08:03:08.692Z,4.00
2023-03-27T08:05:36.052Z,4.05
2023-03-27T08:08:02.492Z,4.14
2023-03-27T08:10:29.040Z,4.24
2023-03-27T08:12:57.320Z,4.17
2023-03-27T08:15:24.237Z,4.12
2023-03-27T08:17:50.711Z,4.17
2023-03-27T08:20:17.345Z,4.33
2023-03-27T08:22:43.776Z,4.50
2023-03-27T08:25:10.192Z,4.70
2023-03-27T08:27:36.859Z,4.73
2023-03-27T08:30:04.651Z,4.72
2023-03-27T08:32:31.139Z,4.78
2023-03-27T08:34:57.618Z,4.79
2023-03-27T08:37:24.619Z,4.83
2023-03-27T08:39:51.038Z,4.97
2023-03-27T08:42:20.023Z,5.08
2023-03-27T08:44:46.470Z,5.05
2023-03-27T08:47:32.206Z,5.35
2023-03-27T08:49:58.797Z,5.47
2023-03-27T08:52:26.288Z,5.40
2023-03-27T08:54:54.809Z,5.22
2023-03-27T08:57:22.092Z,5.19
2023-03-27T08:59:50.823Z,5.39
2023-03-27T09:02:39.667Z,5.52
2023-03-27T09:05:22.160Z,5.46
2023-03-27T09:08:03.709Z,5.48
2023-03-27T09:10:33.053Z,5.68
2023-03-27T09:13:22.943Z,5.76
2023-03-27T09:16:00.690Z,5.87
2023-03-27T09:18:58.265Z,5.96
2023-03-27T09:21:46.906Z,5.80
2023-03-27T09:24:39.244Z,5.37
2023-03-27T09:27:25.328Z,5.16
2023-03-27T09:30:10.026Z,5.07
2023-03-27T09:32:36.592Z,5.14
2023-03-27T09:35:03.147Z,5.17
2023-03-27T09:37:29.581Z,5.19
2023-03-27T09:39:56.004Z,5.26
2023-03-27T09:42:34.314Z,5.49
2023-03-27T09:45:03.433Z,5.58
2023-03-27T09:47:32.876Z,5.65
2023-03-27T09:50:37.426Z,5.64
2023-03-27T09:53:12.187Z,5.87
2023-03-27T09:55:47.606Z,5.99
2023-03-27T09:58:14.938Z,6.04
2023-03-27T10:00:41.422Z,5.97
2023-03-27T10:03:16.605Z,5.99
2023-03-27T10:05:43.464Z,5.94
2023-03-27T10:08:35.392Z,5.98
2023-03-27T10:11:02.129Z,6.04
2023-03-27T10:13:28.838Z,6.13
2023-03-27T10:16:03.303Z,6.42
2023-03-27T10:18:30.861Z,6.68
2023-03-27T10:20:59.193Z,6.85
2023-03-27T10:23:27.258Z,7.01
2023-03-27T10:25:57.507Z,6.96
2023-03-27T10:28:24.793Z,6.63
2023-03-27T10:31:05.058Z,6.20
2023-03-27T10:33:36.039Z,5.93
2023-03-27T10:36:03.423Z,5.79
2023-03-27T10:38:29.889Z,5.54
2023-03-27T10:40:56.505Z,5.49
2023-03-27T10:43:33.723Z,5.31
2023-03-27T10:46:04.967Z,4.53
2023-03-27T10:48:56.342Z,3.90
2023-03-27T10:51:50.331Z,3.46
2023-03-27T10:54:34.978Z,3.26
2023-03-27T10:57:10.625Z,3.35
2023-03-27T10:59:42.099Z,3.55
2023-03-27T11:02:25.672Z,3.74
2023-03-27T11:04:58.969Z,3.98
2023-03-27T11:07:35.567Z,4.15
2023-03-27T11:10:15.960Z,4.28
2023-03-27T11:12:42.923Z,4.37
2023-03-27T11:15:44.196Z,4.55
2023-03-27T11:18:32.469Z,4.81
2023-03-27T11:21:04.716Z,5.10
2023-03-27T11:23:55.239Z,5.28
2023-03-27T11:26:21.774Z,5.43
2023-03-27T11:28:56.100Z,5.48
2023-03-27T11:31:38.304Z,5.25
2023-03-27T11:34:10.805Z,4.98
2023-03-27T11:36:45.292Z,4.80
2023-03-27T11:39:20.756Z,4.65
2023-03-27T11:41:55.975Z,4.51
2023-03-27T11:44:23.123Z,4.26
2023-03-27T11:46:56.238Z,4.00
2023-03-27T11:49:52.940Z,3.69
2023-03-27T11:52:31.507Z,3.42
2023-03-27T11:55:32.050Z,3.43
2023-03-27T11:58:12.664Z,3.56
2023-03-27T12:00:53.181Z,3.63
2023-03-27T12:03:40.435Z,3.65
2023-03-27T12:06:13.910Z,3.83
2023-03-27T12:09:01.589Z,4.18
2023-03-27T12:11:28.455Z,4.62
2023-03-27T12:14:14.112Z,4.93
2023-03-27T12:16:59.691Z,5.20
2023-03-27T12:19:44.324Z,5.58
2023-03-27T12:22:52.252Z,5.93
2023-03-27T12:25:40.067Z,6.15
2023-03-27T12:28:34.250Z,6.41
2023-03-27T12:31:34.234Z,6.71
2023-03-27T12:34:23.468Z,6.65
2023-03-27T12:36:49.940Z,6.96
2023-03-27T12:39:23.251Z,7.35
2023-03-27T12:41:49.773Z,7.94
2023-03-27T12:44:19.301Z,8.09
2023-03-27T12:47:23.854Z,8.36
2023-03-27T12:49:59.350Z,8.44
2023-03-27T12:52:25.870Z,8.57
2023-03-27T12:55:07.254Z,8.68
2023-03-27T12:57:44.378Z,8.85
2023-03-27T13:00:24.823Z,8.39
2023-03-27T13:03:00.365Z,8.56
2023-03-27T13:05:29.580Z,8.24
2023-03-27T13:08:21.100Z,7.70
2023-03-27T13:10:53.651Z,7.29
2023-03-27T13:13:35.591Z,6.72
2023-03-27T13:16:34.217Z,5.41
2023-03-27T13:19:15.606Z,4.76
2023-03-27T13:21:51.863Z,4.69
2023-03-27T13:24:24.178Z,4.58
2023-03-27T13:26:57.253Z,4.48
2023-03-27T13:29:25.067Z,4.34
2023-03-27T13:31:59.481Z,5.07
2023-03-27T13:34:37.361Z,6.86
2023-03-27T13:37:12.960Z,8.68
2023-03-27T13:39:59.911Z,9.95
2023-03-27T13:42:37.542Z,10.63
2023-03-27T13:45:21.247Z,12.20
2023-03-27T13:48:12.433Z,12.78
2023-03-27T13:51:04.884Z,13.80
2023-03-27T13:53:37.331Z,14.57
2023-03-27T13:56:09.771Z,14.42
2023-03-27T13:59:01.486Z,14.93
2023-03-27T14:01:53.323Z,14.28
2023-03-27T14:04:25.548Z,13.64
2023-03-27T14:07:20.085Z,11.12
2023-03-27T14:09:59.421Z,10.26
2023-03-27T14:12:40.013Z,9.19
2023-03-27T14:15:37.188Z,9.42
2023-03-27T14:18:31.449Z,8.23
2023-03-27T14:21:02.115Z,8.62
2023-03-27T14:23:32.513Z,8.47
2023-03-27T14:26:04.027Z,7.43
2023-03-27T14:28:34.491Z,9.32
2023-03-27T14:31:04.601Z,10.24
2023-03-27T14:33:31.140Z,10.29
2023-03-27T14:36:02.122Z,11.76
2023-03-27T14:38:30.561Z,11.42
2023-03-27T14:41:01.092Z,11.18
2023-03-27T14:43:29.717Z,12.05
2023-03-27T14:45:59.541Z,12.12
2023-03-27T14:48:44.589Z,10.69
2023-03-27T14:51:14.932Z,9.78
2023-03-27T14:53:43.054Z,12.41
2023-03-27T14:56:27.699Z,12.35
2023-03-27T14:58:58.779Z,10.92
2023-03-27T15:01:25.506Z,11.88
2023-03-27T15:03:54.609Z,11.10
2023-03-27T15:06:22.614Z,9.86
2023-03-27T15:08:54.958Z,9.62
2023-03-27T15:11:23.044Z,9.35
2023-03-27T15:13:52.312Z,9.23
2023-03-27T15:16:25.431Z,8.31
2023-03-27T15:19:04.333Z,7.55
2023-03-27T15:21:39.563Z,7.09
2023-03-27T15:24:15.199Z,6.96
2023-03-27T15:26:41.639Z,6.63
2023-03-27T15:29:17.247Z,6.89
2023-03-27T15:31:44.239Z,7.28
2023-03-27T15:34:25.184Z,8.50
2023-03-27T15:36:55.236Z,9.12
2023-03-27T15:39:22.625Z,8.31
2023-03-27T15:41:54.272Z,9.77
2023-03-27T15:44:22.015Z,8.61
2023-03-27T15:46:51.345Z,7.68
2023-03-27T15:49:33.344Z,7.10
2023-03-27T15:52:02.976Z,7.61
2023-03-27T15:54:35.873Z,8.23
2023-03-27T15:57:09.122Z,8.46
2023-03-27T15:59:52.688Z,7.56
2023-03-27T16:02:22.853Z,6.84
2023-03-27T16:04:50.354Z,7.74
2023-03-27T16:07:28.827Z,8.25
2023-03-27T16:10:05.172Z,8.24
2023-03-27T16:12:51.216Z,8.47
2023-03-27T16:15:40.351Z,8.04
2023-03-27T16:18:19.898Z,7.48
2023-03-27T16:20:46.541Z,7.14
2023-03-27T16:23:13.030Z,6.97
2023-03-27T16:25:39.463Z,7.01
2023-03-27T16:28:07.322Z,6.55
2023-03-27T16:30:35.205Z,6.42
2023-03-27T16:33:02.333Z,6.29
2023-03-27T16:35:29.494Z,6.12
2023-03-27T16:37:55.916Z,6.13
2023-03-27T16:40:22.344Z,6.18
2023-03-27T16:42:48.801Z,6.18
2023-03-27T16:45:15.228Z,6.11
2023-03-27T16:47:41.772Z,6.03
2023-03-27T16:50:14.378Z,5.94
2023-03-27T16:52:40.859Z,5.85
2023-03-27T16:55:07.903Z,5.47
2023-03-27T16:57:35.694Z,5.11
2023-03-27T17:00:02.182Z,4.91
2023-03-27T17:02:28.719Z,4.88
2023-03-27T17:04:55.261Z,4.84
2023-03-27T17:07:21.776Z,4.80
2023-03-27T17:09:48.197Z,4.75
2023-03-27T17:12:14.659Z,4.79
2023-03-27T17:14:41.090Z,4.80
2023-03-27T17:17:07.530Z,4.81
2023-03-27T17:19:33.974Z,4.86
2023-03-27T17:22:00.428Z,4.86
2023-03-27T17:24:26.932Z,4.75
2023-03-27T17:26:53.372Z,4.37
2023-03-27T17:29:19.793Z,3.94
2023-03-27T17:31:46.292Z,3.67
2023-03-27T17:34:12.754Z,3.56
2023-03-27T17:36:47.184Z,3.50
2023-03-27T17:39:18.981Z,3.51
2023-03-27T17:41:45.498Z,3.43
2023-03-27T17:44:12.248Z,3.49
2023-03-27T17:46:38.717Z,3.50
2023-03-27T17:49:05.213Z,3.47
2023-03-27T17:51:31.690Z,3.50
2023-03-27T17:53:58.230Z,3.49
2023-03-27T17:56:24.659Z,3.47
2023-03-27T17:58:51.121Z,3.51
2023-03-27T18:01:19.485Z,3.68
2023-03-27T18:03:46.110Z,3.80
2023-03-27T18:06:13.107Z,3.82
2023-03-27T18:08:39.635Z,3.76
2023-03-27T18:11:10.293Z,3.56
2023-03-27T18:13:36.912Z,3.36
2023-03-27T18:16:06.375Z,3.19
2023-03-27T18:18:33.242Z,3.18
2023-03-27T18:20:59.748Z,3.19
2023-03-27T18:23:26.162Z,3.16
2023-03-27T18:25:52.629Z,3.23
2023-03-27T18:28:19.085Z,3.31
2023-03-27T18:30:45.485Z,3.37
2023-03-27T18:33:11.932Z,3.27
2023-03-27T18:35:38.525Z,3.11
2023-03-27T18:38:05.245Z,3.02
2023-03-27T18:40:31.818Z,3.04
2023-03-27T18:42:58.308Z,2.90
2023-03-27T18:45:24.829Z,2.84
2023-03-27T18:47:51.356Z,2.81
2023-03-27T18:50:17.811Z,2.83
2023-03-27T18:52:44.251Z,2.88
2023-03-27T18:55:10.802Z,2.87
2023-03-27T18:57:37.233Z,2.99
2023-03-27T19:00:05.317Z,2.93
2023-03-27T19:02:33.145Z,2.93
2023-03-27T19:04:59.747Z,2.89
2023-03-27T19:07:28.468Z,2.86
2023-03-27T19:09:54.903Z,2.89
2023-03-27T19:12:21.308Z,2.88
2023-03-27T19:14:48.016Z,2.98
2023-03-27T19:17:14.483Z,3.11
2023-03-27T19:19:41.710Z,3.17
2023-03-27T19:22:09.525Z,3.09
2023-03-27T19:24:36.134Z,3.10
2023-03-27T19:27:02.575Z,3.12
2023-03-27T19:29:29.043Z,3.03
2023-03-27T19:31:55.529Z,3.02
2023-03-27T19:34:29.871Z,3.08
2023-03-27T19:37:02.808Z,3.22
2023-03-27T19:39:29.205Z,3.28
2023-03-27T19:41:55.674Z,3.30
2023-03-27T19:44:22.128Z,3.40
2023-03-27T19:46:48.667Z,3.43
2023-03-27T19:49:17.639Z,3.44
2023-03-27T19:51:44.092Z,3.39
2023-03-27T19:54:10.612Z,3.36
2023-03-27T19:56:37.056Z,3.36
2023-03-27T19:59:04.636Z,3.41
2023-03-27T20:01:31.047Z,3.42
2023-03-27T20:03:58.552Z,3.38
2023-03-27T20:06:25.195Z,3.33
2023-03-27T20:08:55.246Z,3.33
2023-03-27T20:11:21.681Z,3.35
2023-03-27T20:13:56.153Z,3.31
2023-03-27T20:16:25.184Z,3.36
2023-03-27T20:18:51.725Z,3.33
2023-03-27T20:21:18.189Z,3.29
2023-03-27T20:23:44.761Z,3.23
2023-03-27T20:26:11.216Z,3.24
2023-03-27T20:28:37.644Z,3.30
2023-03-27T20:31:04.811Z,3.41
2023-03-27T20:33:31.274Z,3.40
2023-03-27T20:35:58.057Z,3.38
2023-03-27T20:38:24.788Z,3.41
2023-03-27T20:40:53.125Z,3.29
2023-03-27T20:43:20.102Z,3.28
2023-03-27T20:45:46.591Z,3.22
2023-03-27T20:48:13.717Z,3.21
2023-03-27T20:50:42.059Z,3.25
2023-03-27T20:53:10.288Z,3.33
2023-03-27T20:55:43.600Z,3.37
2023-03-27T20:58:16.259Z,3.37
2023-03-27T21:00:42.796Z,3.25
2023-03-27T21:03:10.402Z,3.18
2023-03-27T21:05:36.919Z,3.11
2023-03-27T21:08:03.359Z,3.05
2023-03-27T21:10:29.779Z,3.05
2023-03-27T21:12:56.187Z,3.06
2023-03-27T21:15:22.627Z,3.03
2023-03-27T21:17:49.154Z,2.97
2023-03-27T21:20:15.629Z,3.03
2023-03-27T21:22:42.216Z,3.03
2023-03-27T21:25:08.864Z,3.07
2023-03-27T21:27:35.301Z,3.09
2023-03-27T21:30:01.796Z,3.18
2023-03-27T21:32:28.226Z,3.12
2023-03-27T21:34:54.698Z,3.04
2023-03-27T21:37:21.198Z,3.05
2023-03-27T21:39:47.655Z,3.09
2023-03-27T21:42:14.108Z,3.06
2023-03-27T21:44:40.603Z,3.09
2023-03-27T21:47:07.008Z,3.08
2023-03-27T21:49:33.460Z,3.00
2023-03-27T21:51:59.884Z,2.94
2023-03-27T21:54:26.399Z,3.11
2023-03-27T21:56:52.884Z,3.28
2023-03-27T21:59:19.381Z,3.20
2023-03-27T22:01:45.843Z,3.28
2023-03-27T22:04:12.341Z,3.26
2023-03-27T22:06:38.870Z,3.27
2023-03-27T22:09:05.291Z,3.15
2023-03-27T22:11:31.745Z,3.24
2023-03-27T22:13:58.178Z,3.33
2023-03-27T22:16:24.895Z,3.35
2023-03-27T22:18:51.381Z,3.41
2023-03-27T22:21:19.750Z,3.42
2023-03-27T22:23:46.299Z,3.43
2023-03-27T22:26:12.914Z,3.38
2023-03-27T22:28:39.342Z,3.24
2023-03-27T22:31:06.087Z,3.04
2023-03-27T22:33:32.497Z,2.84
2023-03-27T22:35:59.138Z,2.78
2023-03-27T22:38:25.847Z,2.59
2023-03-27T22:40:52.262Z,2.52
2023-03-27T22:43:22.569Z,2.51
2023-03-27T22:45:50.282Z,2.52
2023-03-27T22:48:16.734Z,2.46
2023-03-27T22:50:43.158Z,2.43
2023-03-27T22:53:09.604Z,2.37
2023-03-27T22:55:36.024Z,2.25
2023-03-27T22:58:02.432Z,2.26
2023-03-27T23:00:28.895Z,2.19
2023-03-27T23:02:55.366Z,2.05
2023-03-27T23:05:21.903Z,1.98
2023-03-27T23:07:48.297Z,1.94
2023-03-27T23:10:14.702Z,1.89
2023-03-27T23:12:41.119Z,1.84
2023-03-27T23:15:08.272Z,1.82
2023-03-27T23:17:34.875Z,1.86
2023-03-27T23:20:01.334Z,1.82
2023-03-27T23:22:27.787Z,1.84
2023-03-27T23:24:54.178Z,1.80
2023-03-27T23:27:20.634Z,1.78
2023-03-27T23:29:47.080Z,1.78
2023-03-27T23:32:13.677Z,1.79
2023-03-27T23:34:40.168Z,1.66
2023-03-27T23:37:06.623Z,1.67
2023-03-27T23:39:33.033Z,1.75
2023-03-27T23:41:59.465Z,1.86
2023-03-27T23:44:25.849Z,1.72
2023-03-27T23:46:52.273Z,1.73
2023-03-27T23:49:18.747Z,1.79
2023-03-27T23:51:45.183Z,1.70
2023-03-27T23:54:11.576Z,1.70
2023-03-27T23:56:38.069Z,1.60
2023-03-27T23:59:04.480Z,1.64
